Terminal Aerodrome Forecast
Issued by NWS

Current Version | Previous Version | Text Only | Print | Product List | Glossary On
Versions: 1 2 3 4 5 6 7 8 9 10 11 12 13
000
FTUS45 KSLC 202343
TAFENV
TAF
KENV 202343Z 2100/2124 12008KT P6SM BKN200
     FM210300 VRB04KT P6SM SCT150
     FM211600 14008KT P6SM SCT120
     FM212100 19012G20KT P6SM VCSH SCT070 BKN100
      AMD LTD TO CLD VIS AND WIND=

USA.gov is the U.S. government's official web portal to all federal, state and local government web resources and services.